createdAt,value
2022-12-05T00:02:08.789Z,18.67
2022-12-05T00:04:37.240Z,19.93
2022-12-05T00:07:08.284Z,18.80
2022-12-05T00:09:36.272Z,18.33
2022-12-05T00:12:04.586Z,19.30
2022-12-05T00:14:35.554Z,18.50
2022-12-05T00:17:03.646Z,19.43
2022-12-05T00:19:33.316Z,20.40
2022-12-05T00:22:01.309Z,19.77
2022-12-05T00:24:29.202Z,20.10
2022-12-05T00:26:57.167Z,19.67
2022-12-05T00:29:25.104Z,18.53
2022-12-05T00:31:53.160Z,19.63
2022-12-05T00:34:21.129Z,17.50
2022-12-05T00:36:50.859Z,18.07
2022-12-05T00:39:18.985Z,18.87
2022-12-05T00:41:49.797Z,18.57
2022-12-05T00:44:17.755Z,19.50
2022-12-05T00:46:45.701Z,20.33
2022-12-05T00:49:14.006Z,19.27
2022-12-05T00:51:44.042Z,20.20
2022-12-05T00:54:16.204Z,18.97
2022-12-05T00:56:44.857Z,18.43
2022-12-05T00:59:19.927Z,19.30
2022-12-05T01:01:49.285Z,19.43
2022-12-05T01:04:20.266Z,20.13
2022-12-05T01:06:48.777Z,18.23
2022-12-05T01:09:21.618Z,18.30
2022-12-05T01:11:50.217Z,18.10
2022-12-05T01:14:20.396Z,18.93
2022-12-05T01:16:49.758Z,17.50
2022-12-05T01:19:20.156Z,18.10
2022-12-05T01:21:48.504Z,17.10
2022-12-05T01:24:22.049Z,17.07
2022-12-05T01:26:50.431Z,16.13
2022-12-05T01:29:21.276Z,17.40
2022-12-05T01:31:49.836Z,16.73
2022-12-05T01:34:22.021Z,16.73
2022-12-05T01:36:50.186Z,15.80
2022-12-05T01:39:19.433Z,15.63
2022-12-05T01:41:50.188Z,15.10
2022-12-05T01:44:55.612Z,14.23
2022-12-05T01:47:26.755Z,15.37
2022-12-05T01:49:54.895Z,14.90
2022-12-05T01:52:27.333Z,15.53
2022-12-05T01:55:01.960Z,14.63
2022-12-05T01:57:29.993Z,14.80
2022-12-05T02:00:04.108Z,14.27
2022-12-05T02:02:34.006Z,13.80
2022-12-05T02:05:06.315Z,14.40
2022-12-05T02:07:34.875Z,14.03
2022-12-05T02:10:05.126Z,14.03
2022-12-05T02:12:33.104Z,13.33
2022-12-05T02:15:13.887Z,13.50
2022-12-05T02:17:49.864Z,12.87
2022-12-05T02:20:33.262Z,12.30
2022-12-05T02:23:22.543Z,12.33
2022-12-05T02:26:40.385Z,13.07
2022-12-05T02:30:08.780Z,13.07
2022-12-05T02:32:50.121Z,12.97
2022-12-05T02:35:31.552Z,13.10
2022-12-05T02:38:07.912Z,13.63
2022-12-05T02:40:44.220Z,13.00
2022-12-05T02:43:18.683Z,13.03
2022-12-05T02:45:49.207Z,13.50
2022-12-05T02:48:19.382Z,12.33
2022-12-05T02:50:50.049Z,11.80
2022-12-05T02:53:23.115Z,13.10
2022-12-05T02:55:51.465Z,12.63
2022-12-05T02:58:24.495Z,12.40
2022-12-05T03:00:58.257Z,13.30
2022-12-05T03:03:28.250Z,13.57
2022-12-05T03:06:04.200Z,13.00
2022-12-05T03:08:37.096Z,12.70
2022-12-05T03:11:05.483Z,11.80
2022-12-05T03:13:39.772Z,14.30
2022-12-05T03:16:13.868Z,12.70
2022-12-05T03:18:47.477Z,12.57
2022-12-05T03:21:22.814Z,12.60
2022-12-05T03:23:55.003Z,13.50
2022-12-05T03:26:37.727Z,13.70
2022-12-05T03:29:20.935Z,14.93
2022-12-05T03:31:58.612Z,16.00
2022-12-05T03:34:38.948Z,14.63
2022-12-05T03:37:12.059Z,15.67
2022-12-05T03:39:42.583Z,14.87
2022-12-05T03:42:13.301Z,14.03
2022-12-05T03:44:48.809Z,14.03
2022-12-05T03:47:22.676Z,14.23
2022-12-05T03:49:57.905Z,14.70
2022-12-05T03:52:31.435Z,15.20
2022-12-05T03:55:04.400Z,16.17
2022-12-05T03:57:37.513Z,15.23
2022-12-05T04:00:11.726Z,14.13
2022-12-05T04:02:45.600Z,14.63
2022-12-05T04:05:20.504Z,13.67
2022-12-05T04:07:52.432Z,14.53
2022-12-05T04:10:25.069Z,13.43
2022-12-05T04:12:55.882Z,13.70
2022-12-05T04:15:27.572Z,13.57
2022-12-05T04:17:59.382Z,12.90
2022-12-05T04:20:53.133Z,13.70
2022-12-05T04:23:21.978Z,13.03
2022-12-05T04:25:59.325Z,12.73
2022-12-05T04:28:32.701Z,12.27
2022-12-05T04:31:07.258Z,12.00
2022-12-05T04:33:43.070Z,12.03
2022-12-05T04:36:16.434Z,12.93
2022-12-05T04:38:49.344Z,12.63
2022-12-05T04:41:21.717Z,12.60
2022-12-05T04:43:51.884Z,11.97
2022-12-05T04:46:22.049Z,13.50
2022-12-05T04:48:53.644Z,12.97
2022-12-05T04:51:26.037Z,14.47
2022-12-05T04:53:58.476Z,13.13
2022-12-05T04:56:31.047Z,15.57
2022-12-05T04:58:59.070Z,15.77
2022-12-05T05:01:30.966Z,15.10
2022-12-05T05:04:03.717Z,14.33
2022-12-05T05:06:33.056Z,15.23
2022-12-05T05:09:00.949Z,15.83
2022-12-05T05:11:30.695Z,16.90
2022-12-05T05:13:58.743Z,14.93
2022-12-05T05:16:28.914Z,16.80
2022-12-05T05:18:57.584Z,16.10
2022-12-05T05:21:28.933Z,16.20
2022-12-05T05:24:01.773Z,15.83
2022-12-05T05:26:31.574Z,15.90
2022-12-05T05:28:59.920Z,15.33
2022-12-05T05:31:31.059Z,17.40
2022-12-05T05:34:07.478Z,18.37
2022-12-05T05:36:37.624Z,19.60
2022-12-05T05:39:07.801Z,19.57
2022-12-05T05:41:38.251Z,20.00
2022-12-05T05:44:07.048Z,21.50
2022-12-05T05:46:36.321Z,21.17
2022-12-05T05:49:05.327Z,20.57
2022-12-05T05:51:33.417Z,22.23
2022-12-05T05:54:01.718Z,20.83
2022-12-05T05:56:31.126Z,22.67
2022-12-05T05:59:00.473Z,22.70
2022-12-05T06:01:29.491Z,20.83
2022-12-05T06:03:57.649Z,22.37
2022-12-05T06:06:26.112Z,22.53
2022-12-05T06:08:54.657Z,23.33
2022-12-05T06:11:27.485Z,23.80
2022-12-05T06:13:59.967Z,23.93
2022-12-05T06:16:30.158Z,24.00
2022-12-05T06:18:59.594Z,23.57
2022-12-05T06:21:28.070Z,24.53
2022-12-05T06:23:56.900Z,24.77
2022-12-05T06:26:25.459Z,23.57
2022-12-05T06:28:53.513Z,23.93
2022-12-05T06:31:31.711Z,26.80
2022-12-05T06:34:02.237Z,26.60
2022-12-05T06:36:30.968Z,26.30
2022-12-05T06:38:59.265Z,25.80
2022-12-05T06:41:28.656Z,23.60
2022-12-05T06:44:01.966Z,27.10
2022-12-05T06:46:32.180Z,24.87
2022-12-05T06:49:01.493Z,24.53
2022-12-05T06:51:32.428Z,23.63
2022-12-05T06:54:00.339Z,22.97
2022-12-05T06:56:28.817Z,20.47
2022-12-05T06:58:59.084Z,20.87
2022-12-05T07:01:42.460Z,20.17
2022-12-05T07:04:16.556Z,20.07
2022-12-05T07:06:50.258Z,19.97
2022-12-05T07:09:20.332Z,19.20
2022-12-05T07:11:49.212Z,21.37
2022-12-05T07:14:45.852Z,19.50
2022-12-05T07:17:06.628Z,18.53
2022-12-05T07:19:52.477Z,19.43
2022-12-05T07:22:24.400Z,18.10
2022-12-05T07:24:53.290Z,17.77
2022-12-05T07:27:30.532Z,17.17
2022-12-05T07:29:59.073Z,17.40
2022-12-05T07:32:27.320Z,16.73
2022-12-05T07:34:57.059Z,16.07
2022-12-05T07:37:25.016Z,15.30
2022-12-05T07:39:53.485Z,17.17
2022-12-05T07:42:21.671Z,17.27
2022-12-05T07:44:49.712Z,14.57
2022-12-05T07:47:17.720Z,15.57
2022-12-05T07:49:45.917Z,14.90
2022-12-05T07:52:15.308Z,15.87
2022-12-05T07:54:43.289Z,16.17
2022-12-05T07:57:11.155Z,17.87
2022-12-05T07:59:39.189Z,16.73
2022-12-05T08:02:07.869Z,17.17
2022-12-05T08:04:35.879Z,16.90
2022-12-05T08:07:04.884Z,18.27
2022-12-05T08:09:34.160Z,17.63
2022-12-05T08:12:02.333Z,18.93
2022-12-05T08:14:30.266Z,18.23
2022-12-05T08:16:58.504Z,17.77
2022-12-05T08:19:27.006Z,17.73
2022-12-05T08:21:55.927Z,17.13
2022-12-05T08:24:24.948Z,16.77
2022-12-05T08:26:54.230Z,16.53
2022-12-05T08:29:23.332Z,18.03
2022-12-05T08:31:52.848Z,19.20
2022-12-05T08:34:21.992Z,18.37
2022-12-05T08:36:59.729Z,18.60
2022-12-05T08:39:28.113Z,20.13
2022-12-05T08:41:57.495Z,19.33
2022-12-05T08:44:26.016Z,20.83
2022-12-05T08:46:54.155Z,20.27
2022-12-05T08:49:22.142Z,20.27
2022-12-05T08:51:50.321Z,21.13
2022-12-05T08:54:19.633Z,24.13
2022-12-05T08:56:47.700Z,24.60
2022-12-05T08:59:17.177Z,23.03
2022-12-05T09:01:45.536Z,22.53
2022-12-05T09:04:13.723Z,22.93
2022-12-05T09:06:43.141Z,23.10
2022-12-05T09:09:12.696Z,22.40
2022-12-05T09:11:46.527Z,24.93
2022-12-05T09:14:16.538Z,22.27
2022-12-05T09:17:04.607Z,23.20
2022-12-05T09:19:32.577Z,24.20
2022-12-05T09:22:00.507Z,24.33
2022-12-05T09:24:28.558Z,24.17
2022-12-05T09:26:56.453Z,24.97
2022-12-05T09:29:28.861Z,25.77
2022-12-05T09:31:59.911Z,25.50
2022-12-05T09:34:27.922Z,23.67
2022-12-05T09:37:10.560Z,23.43
2022-12-05T09:39:46.214Z,26.00
2022-12-05T09:42:31.061Z,25.73
2022-12-05T09:45:17.305Z,24.50
2022-12-05T09:47:54.709Z,25.97
2022-12-05T09:50:24.315Z,24.00
2022-12-05T09:53:08.608Z,25.00
2022-12-05T09:55:43.147Z,23.87
2022-12-05T09:58:27.444Z,26.27
2022-12-05T10:01:03.033Z,25.40
2022-12-05T10:03:40.307Z,23.83
2022-12-05T10:06:25.832Z,24.37
2022-12-05T10:09:10.064Z,25.87
2022-12-05T10:11:46.433Z,25.23
2022-12-05T10:14:20.639Z,26.00
2022-12-05T10:16:55.085Z,25.23
2022-12-05T10:19:27.071Z,24.27
2022-12-05T10:22:02.075Z,25.67
2022-12-05T10:24:34.467Z,24.77
2022-12-05T10:27:07.019Z,23.70
2022-12-05T10:29:39.827Z,24.40
2022-12-05T10:32:16.734Z,25.10
2022-12-05T10:34:46.518Z,24.47
2022-12-05T10:37:17.685Z,28.20
2022-12-05T10:39:46.863Z,24.67
2022-12-05T10:42:20.176Z,23.17
2022-12-05T10:44:49.452Z,22.23
2022-12-05T10:47:18.744Z,24.00
2022-12-05T10:49:47.155Z,22.63
2022-12-05T10:52:16.658Z,22.57
2022-12-05T10:54:47.873Z,21.47
2022-12-05T10:57:24.013Z,21.57
2022-12-05T10:59:54.491Z,21.33
2022-12-05T11:02:28.816Z,22.73
2022-12-05T11:04:58.570Z,21.87
2022-12-05T11:07:31.742Z,22.00
2022-12-05T11:10:00.928Z,22.13
2022-12-05T11:12:30.918Z,22.13
2022-12-05T11:15:07.699Z,22.10
2022-12-05T11:17:40.107Z,20.20
2022-12-05T11:20:39.682Z,21.53
2022-12-05T11:23:26.195Z,22.73
2022-12-05T11:25:58.530Z,23.40
2022-12-05T11:28:38.179Z,22.40
2022-12-05T11:31:21.141Z,21.27
2022-12-05T11:34:12.291Z,21.70
2022-12-05T11:36:44.198Z,22.83
2022-12-05T11:39:14.024Z,21.63
2022-12-05T11:41:57.139Z,22.23
2022-12-05T11:44:42.285Z,24.30
2022-12-05T11:47:22.317Z,21.63
2022-12-05T11:50:16.902Z,21.10
2022-12-05T11:52:58.404Z,18.03
2022-12-05T11:55:34.381Z,18.70
2022-12-05T11:58:33.511Z,17.53
2022-12-05T12:01:08.632Z,16.37
2022-12-05T12:03:55.510Z,16.23
2022-12-05T12:06:32.785Z,16.90
2022-12-05T12:09:21.481Z,17.73
2022-12-05T12:11:55.479Z,17.73
2022-12-05T12:14:30.824Z,18.70
2022-12-05T12:17:10.861Z,16.13
2022-12-05T12:19:56.560Z,15.33
2022-12-05T12:22:44.839Z,24.17
2022-12-05T12:25:28.354Z,25.43
2022-12-05T12:28:06.257Z,22.83
2022-12-05T12:30:50.535Z,23.17
2022-12-05T12:33:30.591Z,18.00
2022-12-05T12:36:07.662Z,17.13
2022-12-05T12:39:08.958Z,18.03
2022-12-05T12:42:07.580Z,17.10
2022-12-05T12:45:05.114Z,17.37
2022-12-05T12:47:44.973Z,19.83
2022-12-05T12:50:19.387Z,21.70
2022-12-05T12:53:10.816Z,20.47
2022-12-05T12:55:45.962Z,18.90
2022-12-05T12:58:27.778Z,18.23
2022-12-05T13:01:03.711Z,17.03
2022-12-05T13:03:38.787Z,16.87
2022-12-05T13:06:16.969Z,17.07
2022-12-05T13:08:49.757Z,17.60
2022-12-05T13:11:21.343Z,15.97
2022-12-05T13:13:54.041Z,16.20
2022-12-05T13:16:26.753Z,16.87
2022-12-05T13:18:58.025Z,15.33
2022-12-05T13:21:28.784Z,15.43
2022-12-05T13:24:03.282Z,14.53
2022-12-05T13:26:35.263Z,14.40
2022-12-05T13:29:05.558Z,15.03
2022-12-05T13:31:39.183Z,15.77
2022-12-05T13:34:46.799Z,13.93
2022-12-05T13:37:39.151Z,17.13
2022-12-05T13:40:37.636Z,14.97
2022-12-05T13:43:07.293Z,14.87
2022-12-05T13:45:35.699Z,15.77
2022-12-05T13:48:15.121Z,15.37
2022-12-05T13:50:50.069Z,13.80
2022-12-05T13:53:28.397Z,14.40
2022-12-05T13:55:59.262Z,15.23
2022-12-05T13:58:45.124Z,14.00
2022-12-05T14:01:53.730Z,13.90
2022-12-05T14:04:51.574Z,12.63
2022-12-05T14:07:43.645Z,13.47
2022-12-05T14:10:14.250Z,14.67
2022-12-05T14:12:52.415Z,13.43
2022-12-05T14:15:36.895Z,14.97
2022-12-05T14:18:15.597Z,15.10
2022-12-05T14:20:59.310Z,14.33
2022-12-05T14:23:51.591Z,14.20
2022-12-05T14:26:35.858Z,14.73
2022-12-05T14:29:18.656Z,14.80
2022-12-05T14:32:04.593Z,15.23
2022-12-05T14:34:35.245Z,16.77
2022-12-05T14:37:05.072Z,15.43
2022-12-05T14:39:40.486Z,16.17
2022-12-05T14:42:23.829Z,15.80
2022-12-05T14:44:54.872Z,14.90
2022-12-05T14:47:27.087Z,15.80
2022-12-05T14:50:04.868Z,17.93
2022-12-05T14:52:41.966Z,16.73
2022-12-05T14:55:20.854Z,15.97
2022-12-05T14:57:56.050Z,16.67
2022-12-05T15:00:24.616Z,14.47
2022-12-05T15:02:55.725Z,16.00
2022-12-05T15:05:27.416Z,17.10
2022-12-05T15:08:01.553Z,17.27
2022-12-05T15:10:43.397Z,16.53
2022-12-05T15:13:18.975Z,15.40
2022-12-05T15:15:52.962Z,16.53
2022-12-05T15:18:26.199Z,15.53
2022-12-05T15:21:01.443Z,17.07
2022-12-05T15:23:43.448Z,16.27
2022-12-05T15:26:46.252Z,17.10
2022-12-05T15:29:15.288Z,17.23
2022-12-05T15:31:47.664Z,16.57
2022-12-05T15:34:22.822Z,18.20
2022-12-05T15:36:55.598Z,17.47
2022-12-05T15:39:25.907Z,17.23
2022-12-05T15:41:54.529Z,17.40
2022-12-05T15:44:27.624Z,16.13
2022-12-05T15:46:57.620Z,16.10
2022-12-05T15:49:28.562Z,15.53
2022-12-05T15:52:11.292Z,17.50
2022-12-05T15:54:40.703Z,17.07
2022-12-05T15:57:13.590Z,15.80
2022-12-05T15:59:56.317Z,17.13
2022-12-05T16:02:34.644Z,15.77
2022-12-05T16:05:04.178Z,16.33
2022-12-05T16:07:36.252Z,16.33
2022-12-05T16:10:05.349Z,16.07
2022-12-05T16:12:39.796Z,16.13
2022-12-05T16:15:15.232Z,16.97
2022-12-05T16:17:47.560Z,17.53
2022-12-05T16:20:28.714Z,17.10
2022-12-05T16:23:04.446Z,17.00
2022-12-05T16:25:34.753Z,17.13
2022-12-05T16:28:15.963Z,17.07
2022-12-05T16:30:55.298Z,16.73
2022-12-05T16:33:23.323Z,17.20
2022-12-05T16:35:55.968Z,17.80
2022-12-05T16:38:25.913Z,17.23
2022-12-05T16:40:59.075Z,15.83
2022-12-05T16:43:41.516Z,15.83
2022-12-05T16:46:54.960Z,17.63
2022-12-05T16:49:34.287Z,18.80
2022-12-05T16:52:14.036Z,19.50
2022-12-05T16:54:42.597Z,17.57
2022-12-05T16:57:14.017Z,18.07
2022-12-05T16:59:43.549Z,16.77
2022-12-05T17:02:15.053Z,15.60
2022-12-05T17:04:43.211Z,16.20
2022-12-05T17:07:12.599Z,16.93
2022-12-05T17:09:40.539Z,16.47
2022-12-05T17:12:15.053Z,17.03
2022-12-05T17:14:42.913Z,15.83
2022-12-05T17:17:14.275Z,15.47
2022-12-05T17:19:42.690Z,16.73
2022-12-05T17:22:13.194Z,16.03
2022-12-05T17:24:41.138Z,16.53
2022-12-05T17:27:12.415Z,16.67
2022-12-05T17:29:40.330Z,16.47
2022-12-05T17:32:08.470Z,17.07
2022-12-05T17:34:36.401Z,17.40
2022-12-05T17:37:04.286Z,15.60
2022-12-05T17:39:33.554Z,16.03
2022-12-05T17:42:01.467Z,18.73
2022-12-05T17:44:33.559Z,17.50
2022-12-05T17:47:06.209Z,18.60
2022-12-05T17:49:36.063Z,18.80
2022-12-05T17:52:21.890Z,18.47
2022-12-05T17:54:51.759Z,19.53
2022-12-05T17:57:19.650Z,18.93
2022-12-05T17:59:47.616Z,17.57
2022-12-05T18:02:15.683Z,18.10
2022-12-05T18:04:43.589Z,17.83
2022-12-05T18:07:16.775Z,18.63
2022-12-05T18:09:44.858Z,17.17
2022-12-05T18:12:14.424Z,17.00
2022-12-05T18:14:42.824Z,15.87
2022-12-05T18:17:10.763Z,15.77
2022-12-05T18:19:38.862Z,16.43
2022-12-05T18:22:06.959Z,18.27
2022-12-05T18:24:35.187Z,19.93
2022-12-05T18:27:03.162Z,17.93
2022-12-05T18:29:32.438Z,18.13
2022-12-05T18:32:00.716Z,16.87
2022-12-05T18:34:31.688Z,19.10
2022-12-05T18:36:59.768Z,19.53
2022-12-05T18:39:27.788Z,17.97
2022-12-05T18:41:59.449Z,17.00
2022-12-05T18:44:38.089Z,18.23
2022-12-05T18:47:07.585Z,17.77
2022-12-05T18:49:35.882Z,18.33
2022-12-05T18:52:04.143Z,17.57
2022-12-05T18:54:32.072Z,17.73
2022-12-05T18:56:59.954Z,17.70
2022-12-05T18:59:28.667Z,17.20
2022-12-05T19:01:56.611Z,17.37
2022-12-05T19:04:26.122Z,16.43
2022-12-05T19:06:56.659Z,17.57
2022-12-05T19:09:26.492Z,18.20
2022-12-05T19:11:57.940Z,18.03
2022-12-05T19:14:27.599Z,16.53
2022-12-05T19:17:00.114Z,16.97
2022-12-05T19:19:30.462Z,16.87
2022-12-05T19:22:00.153Z,16.50
2022-12-05T19:24:28.549Z,15.00
2022-12-05T19:26:56.950Z,15.83
2022-12-05T19:29:24.989Z,15.03
2022-12-05T19:31:53.336Z,14.30
2022-12-05T19:34:22.506Z,15.33
2022-12-05T19:36:51.793Z,14.97
2022-12-05T19:39:23.806Z,15.53
2022-12-05T19:41:51.999Z,14.80
2022-12-05T19:44:20.080Z,14.50
2022-12-05T19:46:50.588Z,14.33
2022-12-05T19:49:18.881Z,14.10
2022-12-05T19:51:48.538Z,13.40
2022-12-05T19:54:19.544Z,13.63
2022-12-05T19:56:47.647Z,14.13
2022-12-05T19:59:16.854Z,15.80
2022-12-05T20:01:45.280Z,15.27
2022-12-05T20:04:15.406Z,17.27
2022-12-05T20:06:45.221Z,16.00
2022-12-05T20:09:14.393Z,14.43
2022-12-05T20:11:48.328Z,15.57
2022-12-05T20:14:24.372Z,17.07
2022-12-05T20:16:52.550Z,16.07
2022-12-05T20:19:20.651Z,15.80
2022-12-05T20:21:48.752Z,15.50
2022-12-05T20:24:16.762Z,14.40
2022-12-05T20:26:46.553Z,13.73
2022-12-05T20:29:14.770Z,14.10
2022-12-05T20:31:44.357Z,14.27
2022-12-05T20:34:15.084Z,14.87
2022-12-05T20:36:43.950Z,15.70
2022-12-05T20:39:14.884Z,15.60
2022-12-05T20:41:43.728Z,14.63
2022-12-05T20:44:15.965Z,16.37
2022-12-05T20:46:43.974Z,14.30
2022-12-05T20:49:13.712Z,15.00
2022-12-05T20:51:46.864Z,14.10
2022-12-05T20:54:16.689Z,15.20
2022-12-05T20:56:45.369Z,15.77
2022-12-05T20:59:15.583Z,15.80
2022-12-05T21:01:43.809Z,17.70
2022-12-05T21:04:13.410Z,16.90
2022-12-05T21:06:42.779Z,15.63
2022-12-05T21:09:15.531Z,15.90
2022-12-05T21:11:43.980Z,15.70
2022-12-05T21:14:12.644Z,15.50
2022-12-05T21:16:42.111Z,15.13
2022-12-05T21:19:10.280Z,15.03
2022-12-05T21:21:40.513Z,16.00
2022-12-05T21:24:09.068Z,15.57
2022-12-05T21:26:37.611Z,14.93
2022-12-05T21:29:07.127Z,15.17
2022-12-05T21:31:40.143Z,14.70
2022-12-05T21:34:14.714Z,14.67
2022-12-05T21:36:43.364Z,14.20
2022-12-05T21:39:12.089Z,13.77
2022-12-05T21:41:40.309Z,13.07
2022-12-05T21:44:08.457Z,12.90
2022-12-05T21:46:36.442Z,11.67
2022-12-05T21:49:04.383Z,10.30
2022-12-05T21:51:33.745Z,8.60
2022-12-05T21:54:03.630Z,8.73
2022-12-05T21:56:34.873Z,7.47
2022-12-05T21:59:02.890Z,5.83
2022-12-05T22:01:30.917Z,7.13
2022-12-05T22:04:00.787Z,5.97
2022-12-05T22:06:29.946Z,5.33
2022-12-05T22:08:59.406Z,5.00
2022-12-05T22:11:27.816Z,5.53
2022-12-05T22:13:55.817Z,4.20
2022-12-05T22:16:30.702Z,4.63
2022-12-05T22:19:00.607Z,4.53
2022-12-05T22:21:28.962Z,3.93
2022-12-05T22:23:57.423Z,4.40
2022-12-05T22:26:27.358Z,3.83
2022-12-05T22:28:56.688Z,4.30
2022-12-05T22:31:33.704Z,3.90
2022-12-05T22:34:01.745Z,3.27
2022-12-05T22:36:30.159Z,3.57
2022-12-05T22:38:58.144Z,3.63
2022-12-05T22:41:28.062Z,3.67
2022-12-05T22:43:57.828Z,3.43
2022-12-05T22:46:27.446Z,3.40
2022-12-05T22:48:55.933Z,3.60
2022-12-05T22:51:24.578Z,3.57
2022-12-05T22:53:54.094Z,2.87
2022-12-05T22:56:26.709Z,3.20
2022-12-05T22:58:57.013Z,3.30
2022-12-05T23:01:26.677Z,3.13
2022-12-05T23:03:57.527Z,3.23
2022-12-05T23:06:26.243Z,3.53
2022-12-05T23:08:57.467Z,3.47
2022-12-05T23:11:27.167Z,3.40
2022-12-05T23:14:01.374Z,2.87
2022-12-05T23:16:31.954Z,3.30
2022-12-05T23:19:04.125Z,2.97
2022-12-05T23:21:34.196Z,3.00
2022-12-05T23:24:04.439Z,2.83
2022-12-05T23:26:35.002Z,3.17
2022-12-05T23:29:04.987Z,2.70
2022-12-05T23:31:37.662Z,3.20
2022-12-05T23:34:06.167Z,2.70
2022-12-05T23:36:35.688Z,3.53
2022-12-05T23:39:04.148Z,4.17
2022-12-05T23:41:32.165Z,5.13
2022-12-05T23:44:02.953Z,5.63
2022-12-05T23:46:32.294Z,4.73
2022-12-05T23:49:01.921Z,3.47
2022-12-05T23:51:31.193Z,3.70
2022-12-05T23:54:00.792Z,3.00
2022-12-05T23:56:30.915Z,3.07
2022-12-05T23:58:59.132Z,2.87
